ΕΜΥ, Εθνική Μετεωρολογική Υπηρεσία - Δελτία Καιρού, Προγνώσεις

ΑΕΡΟΝΑΥΤΙΛΙΑ

GREEK AIRPORTS CODES

TAF LGMG 090400Z 0906/0915 VRB05KT 9999 SCT020 BECMG 0909/0911 18012G22KT=

EUROPEAN AIRPORTS CODES

LFPO 090630Z 25008KT CAVOK 03/01 Q1007 NOSIG=